sensor_id;sensor_type;location;lat;lon;timestamp;P1;durP1;ratioP1;P2;durP2;ratioP2
33026;SDS011;30545;52.024;8.524;2022-08-19T20:31:59;6.82;;;5.25;;
33026;SDS011;30545;52.024;8.524;2022-08-19T20:38:04;5.97;;;4.70;;
33026;SDS011;30545;52.024;8.524;2022-08-19T20:40:32;8.43;;;5.20;;
33026;SDS011;30545;52.024;8.524;2022-08-19T20:42:59;8.68;;;5.07;;
33026;SDS011;30545;52.024;8.524;2022-08-19T20:45:27;6.32;;;4.93;;
33026;SDS011;30545;52.024;8.524;2022-08-19T20:47:53;6.80;;;4.72;;
33026;SDS011;30545;52.024;8.524;2022-08-19T20:50:19;8.75;;;4.93;;
33026;SDS011;30545;52.024;8.524;2022-08-19T20:52:45;16.60;;;7.68;;
33026;SDS011;30545;52.024;8.524;2022-08-19T20:55:12;33.63;;;19.67;;
33026;SDS011;30545;52.024;8.524;2022-08-19T20:57:38;21.85;;;13.75;;
33026;SDS011;30545;52.024;8.524;2022-08-19T21:00:04;13.02;;;7.80;;
33026;SDS011;30545;52.024;8.524;2022-08-19T21:02:35;14.30;;;6.78;;
33026;SDS011;30545;52.024;8.524;2022-08-19T21:05:01;8.85;;;5.25;;
33026;SDS011;30545;52.024;8.524;2022-08-19T21:07:27;7.93;;;5.05;;
33026;SDS011;30545;52.024;8.524;2022-08-19T21:09:53;6.55;;;4.35;;
33026;SDS011;30545;52.024;8.524;2022-08-19T21:12:18;8.60;;;5.03;;
33026;SDS011;30545;52.024;8.524;2022-08-19T21:14:44;6.00;;;4.55;;
33026;SDS011;30545;52.024;8.524;2022-08-19T21:17:11;5.45;;;3.97;;
33026;SDS011;30545;52.024;8.524;2022-08-19T21:19:36;7.05;;;4.47;;
33026;SDS011;30545;52.024;8.524;2022-08-19T21:22:03;6.43;;;3.95;;
33026;SDS011;30545;52.024;8.524;2022-08-19T21:24:29;8.95;;;4.63;;
33026;SDS011;30545;52.024;8.524;2022-08-19T21:26:55;8.48;;;5.20;;
33026;SDS011;30545;52.024;8.524;2022-08-19T21:29:21;7.22;;;5.30;;
33026;SDS011;30545;52.024;8.524;2022-08-19T21:31:47;6.97;;;4.85;;
33026;SDS011;30545;52.024;8.524;2022-08-19T21:34:14;9.65;;;5.57;;
33026;SDS011;30545;52.024;8.524;2022-08-19T21:36:39;10.63;;;6.50;;
33026;SDS011;30545;52.024;8.524;2022-08-19T21:39:05;8.82;;;6.18;;
33026;SDS011;30545;52.024;8.524;2022-08-19T21:41:31;9.38;;;6.15;;
33026;SDS011;30545;52.024;8.524;2022-08-19T21:43:57;8.40;;;6.40;;
33026;SDS011;30545;52.024;8.524;2022-08-19T21:46:22;8.38;;;6.38;;
33026;SDS011;30545;52.024;8.524;2022-08-19T21:48:49;9.40;;;5.93;;
33026;SDS011;30545;52.024;8.524;2022-08-19T21:51:14;7.53;;;6.15;;
33026;SDS011;30545;52.024;8.524;2022-08-19T21:53:40;10.32;;;7.00;;
33026;SDS011;30545;52.024;8.524;2022-08-19T21:56:06;9.35;;;6.82;;
33026;SDS011;30545;52.024;8.524;2022-08-19T21:58:31;11.55;;;7.60;;
33026;SDS011;30545;52.024;8.524;2022-08-19T22:01:05;15.32;;;7.82;;
33026;SDS011;30545;52.024;8.524;2022-08-19T22:03:35;9.35;;;7.05;;
33026;SDS011;30545;52.024;8.524;2022-08-19T22:06:10;11.15;;;7.15;;
33026;SDS011;30545;52.024;8.524;2022-08-19T22:08:36;11.07;;;7.25;;
33026;SDS011;30545;52.024;8.524;2022-08-19T22:11:02;9.18;;;6.80;;
33026;SDS011;30545;52.024;8.524;2022-08-19T22:13:29;10.55;;;7.05;;
33026;SDS011;30545;52.024;8.524;2022-08-19T22:15:59;10.68;;;6.35;;
33026;SDS011;30545;52.024;8.524;2022-08-19T22:18:25;10.75;;;6.93;;
33026;SDS011;30545;52.024;8.524;2022-08-19T22:20:53;10.73;;;6.88;;
33026;SDS011;30545;52.024;8.524;2022-08-19T22:23:18;9.88;;;6.43;;
33026;SDS011;30545;52.024;8.524;2022-08-19T22:25:44;9.40;;;6.72;;
33026;SDS011;30545;52.024;8.524;2022-08-19T22:30:42;11.27;;;7.95;;
33026;SDS011;30545;52.024;8.524;2022-08-19T22:33:10;15.35;;;8.90;;
